createdAt,value
2022-09-04T00:01:18.050Z,96520.63
2022-09-04T00:03:51.408Z,96529.50
2022-09-04T00:06:24.908Z,96532.22
2022-09-04T00:09:08.815Z,96530.00
2022-09-04T00:11:47.150Z,96524.13
2022-09-04T00:14:18.709Z,96532.31
2022-09-04T00:16:52.320Z,96518.22
2022-09-04T00:19:31.158Z,96534.38
2022-09-04T00:22:01.922Z,96534.88
2022-09-04T00:24:33.315Z,96533.16
2022-09-04T00:27:06.458Z,96538.06
2022-09-04T00:29:44.809Z,96534.22
2022-09-04T00:32:24.851Z,96531.53
2022-09-04T00:35:04.463Z,96527.84
2022-09-04T00:37:39.263Z,96531.09
2022-09-04T00:40:11.008Z,96519.78
2022-09-04T00:42:55.728Z,96524.13
2022-09-04T00:45:36.148Z,96529.78
2022-09-04T00:48:23.232Z,96531.63
2022-09-04T00:51:17.870Z,96545.38
2022-09-04T00:54:17.196Z,96529.44
2022-09-04T00:57:06.600Z,96537.50
2022-09-04T00:59:54.394Z,96542.25
2022-09-04T01:02:32.587Z,96542.75
2022-09-04T01:05:09.954Z,96540.84
2022-09-04T01:07:56.831Z,96537.38
2022-09-04T01:10:36.551Z,96536.31
2022-09-04T01:13:10.279Z,96541.72
2022-09-04T01:15:45.045Z,96539.03
2022-09-04T01:18:19.110Z,96537.97
2022-09-04T01:21:11.875Z,96540.03
2022-09-04T01:24:09.317Z,96542.25
2022-09-04T01:26:47.788Z,96548.47
2022-09-04T01:29:24.438Z,96542.56
2022-09-04T01:31:59.853Z,96545.69
2022-09-04T01:34:39.334Z,96541.16
2022-09-04T01:37:21.046Z,96537.63
2022-09-04T01:40:00.548Z,96541.41
2022-09-04T01:42:41.815Z,96552.53
2022-09-04T01:45:11.825Z,96550.31
2022-09-04T01:47:47.181Z,96557.31
2022-09-04T01:50:21.987Z,96554.66
2022-09-04T01:52:58.991Z,96559.84
2022-09-04T01:55:35.514Z,96560.88
2022-09-04T01:58:16.223Z,96555.56
2022-09-04T02:00:53.769Z,96562.09
2022-09-04T02:03:32.062Z,96564.16
2022-09-04T02:06:08.516Z,96567.09
2022-09-04T02:08:59.873Z,96562.97
2022-09-04T02:11:30.560Z,96558.47
2022-09-04T02:14:17.753Z,96569.25
2022-09-04T02:16:58.970Z,96574.25
2022-09-04T02:19:37.543Z,96577.94
2022-09-04T02:22:15.189Z,96566.94
2022-09-04T02:24:53.989Z,96572.19
2022-09-04T02:27:27.517Z,96574.63
2022-09-04T02:30:03.520Z,96581.34
2022-09-04T02:32:39.035Z,96576.97
2022-09-04T02:35:15.667Z,96574.53
2022-09-04T02:38:00.385Z,96583.84
2022-09-04T02:40:33.620Z,96586.31
2022-09-04T02:43:19.276Z,96594.19
2022-09-04T02:45:57.088Z,96597.25
2022-09-04T02:48:35.193Z,96600.91
2022-09-04T02:51:20.807Z,96590.97
2022-09-04T02:53:59.006Z,96588.81
2022-09-04T02:56:39.385Z,96592.09
2022-09-04T02:59:32.959Z,96593.72
2022-09-04T03:02:04.583Z,96591.56
2022-09-04T03:04:39.206Z,96592.38
2022-09-04T03:07:13.185Z,96590.69
2022-09-04T03:09:47.091Z,96591.19
2022-09-04T03:12:30.913Z,96598.63
2022-09-04T03:15:04.930Z,96606.09
2022-09-04T03:17:44.572Z,96601.81
2022-09-04T03:20:18.536Z,96601.19
2022-09-04T03:22:52.530Z,96607.72
2022-09-04T03:26:10.751Z,96616.50
2022-09-04T03:28:47.533Z,96610.41
2022-09-04T03:31:27.877Z,96600.75
2022-09-04T03:34:13.725Z,96599.25
2022-09-04T03:36:48.318Z,96602.03
2022-09-04T03:39:25.070Z,96602.47
2022-09-04T03:42:07.988Z,96608.22
2022-09-04T03:44:47.401Z,96613.81
2022-09-04T03:47:29.731Z,96617.88
2022-09-04T03:50:11.603Z,96610.75
2022-09-04T03:52:55.824Z,96615.31
2022-09-04T03:55:41.098Z,96616.13
2022-09-04T03:58:17.708Z,96611.66
2022-09-04T04:00:57.259Z,96617.22
2022-09-04T04:03:43.931Z,96621.31
2022-09-04T04:06:23.288Z,96616.31
2022-09-04T04:09:27.863Z,96619.00
2022-09-04T04:12:13.168Z,96617.16
2022-09-04T04:15:03.306Z,96626.13
2022-09-04T04:17:49.753Z,96630.13
2022-09-04T04:20:29.379Z,96629.13
2022-09-04T04:23:30.602Z,96633.97
2022-09-04T04:26:08.694Z,96641.03
2022-09-04T04:28:59.794Z,96634.03
2022-09-04T04:31:45.799Z,96634.25
2022-09-04T04:34:25.255Z,96646.31
2022-09-04T04:36:59.729Z,96655.50
2022-09-04T04:39:39.319Z,96650.53
2022-09-04T04:42:20.507Z,96652.91
2022-09-04T04:45:21.349Z,96666.59
2022-09-04T04:48:24.951Z,96671.53
2022-09-04T04:51:05.298Z,96677.69
2022-09-04T04:53:41.801Z,96667.47
2022-09-04T04:56:19.219Z,96674.91
2022-09-04T04:59:02.960Z,96664.16
2022-09-04T05:01:43.606Z,96681.94
2022-09-04T05:04:18.596Z,96681.84
2022-09-04T05:06:53.894Z,96685.53
2022-09-04T05:09:31.718Z,96697.44
2022-09-04T05:12:10.488Z,96695.97
2022-09-04T05:14:48.406Z,96693.97
2022-09-04T05:17:24.506Z,96705.09
2022-09-04T05:20:00.182Z,96706.72
2022-09-04T05:22:38.487Z,96710.16
2022-09-04T05:25:11.531Z,96721.28
2022-09-04T05:27:58.318Z,96720.47
2022-09-04T05:30:37.114Z,96721.38
2022-09-04T05:33:13.717Z,96725.81
2022-09-04T05:35:52.966Z,96725.38
2022-09-04T05:38:27.379Z,96738.19
2022-09-04T05:41:07.412Z,96736.13
2022-09-04T05:43:51.135Z,96730.56
2022-09-04T05:46:31.859Z,96726.81
2022-09-04T05:49:04.109Z,96726.06
2022-09-04T05:51:56.502Z,96731.25
2022-09-04T05:54:33.766Z,96734.47
2022-09-04T05:57:13.214Z,96742.00
2022-09-04T05:59:59.445Z,96738.38
2022-09-04T06:02:59.833Z,96739.19
2022-09-04T06:05:38.451Z,96742.81
2022-09-04T06:08:23.136Z,96740.19
2022-09-04T06:11:05.169Z,96747.53
2022-09-04T06:14:08.093Z,96744.13
2022-09-04T06:17:05.732Z,96743.91
2022-09-04T06:19:54.224Z,96755.59
2022-09-04T06:23:02.362Z,96761.22
2022-09-04T06:26:13.142Z,96756.97
2022-09-04T06:28:56.273Z,96767.78
2022-09-04T06:32:04.243Z,96768.34
2022-09-04T06:34:59.234Z,96772.09
2022-09-04T06:37:38.441Z,96766.38
2022-09-04T06:40:21.788Z,96778.50
2022-09-04T06:43:03.714Z,96776.00
2022-09-04T06:45:44.534Z,96780.59
2022-09-04T06:48:23.266Z,96777.63
2022-09-04T06:51:05.247Z,96772.72
2022-09-04T06:53:42.787Z,96786.53
2022-09-04T06:56:29.552Z,96788.66
2022-09-04T06:59:27.744Z,96783.03
2022-09-04T07:02:05.169Z,96777.16
2022-09-04T07:04:44.966Z,96781.50
2022-09-04T07:07:23.637Z,96780.16
2022-09-04T07:10:01.323Z,96783.69
2022-09-04T07:13:10.868Z,96781.25
2022-09-04T07:16:04.919Z,96788.63
2022-09-04T07:18:52.196Z,96777.22
2022-09-04T07:21:28.602Z,96790.19
2022-09-04T07:24:05.147Z,96796.16
2022-09-04T07:26:38.902Z,96793.22
2022-09-04T07:29:27.939Z,96806.88
2022-09-04T07:32:02.664Z,96813.59
2022-09-04T07:34:41.509Z,96811.56
2022-09-04T07:37:27.152Z,96815.94
2022-09-04T07:40:08.121Z,96818.53
2022-09-04T07:42:42.700Z,96818.97
2022-09-04T07:45:22.327Z,96811.69
2022-09-04T07:47:59.537Z,96820.56
2022-09-04T07:50:33.050Z,96816.50
2022-09-04T07:53:25.676Z,96819.44
2022-09-04T07:56:00.776Z,96827.97
2022-09-04T07:58:50.442Z,96821.75
2022-09-04T08:01:40.390Z,96821.41
2022-09-04T08:04:29.618Z,96811.72
2022-09-04T08:07:00.003Z,96818.66
2022-09-04T08:09:50.925Z,96820.31
2022-09-04T08:12:44.832Z,96817.66
2022-09-04T08:15:19.869Z,96816.84
2022-09-04T08:18:02.019Z,96822.97
2022-09-04T08:20:44.095Z,96821.03
2022-09-04T08:23:19.948Z,96826.13
2022-09-04T08:26:00.749Z,96827.19
2022-09-04T08:28:46.606Z,96830.50
2022-09-04T08:31:22.319Z,96835.72
2022-09-04T08:34:30.168Z,96841.28
2022-09-04T08:37:07.892Z,96843.53
2022-09-04T08:39:46.431Z,96846.16
2022-09-04T08:42:55.945Z,96846.19
2022-09-04T08:45:58.876Z,96851.19
2022-09-04T08:49:17.808Z,96849.25
2022-09-04T08:52:20.452Z,96849.66
2022-09-04T08:55:25.224Z,96844.59
2022-09-04T08:58:17.300Z,96853.72
2022-09-04T09:00:53.844Z,96839.53
2022-09-04T09:03:46.601Z,96840.22
2022-09-04T09:07:00.514Z,96846.81
2022-09-04T09:10:10.453Z,96842.47
2022-09-04T09:13:11.413Z,96845.97
2022-09-04T09:15:57.988Z,96832.41
2022-09-04T09:18:40.551Z,96840.88
2022-09-04T09:21:13.661Z,96839.47
2022-09-04T09:24:06.531Z,96842.78
2022-09-04T09:26:39.059Z,96841.16
2022-09-04T09:29:46.706Z,96834.94
2022-09-04T09:32:55.967Z,96829.19
2022-09-04T09:36:12.156Z,96830.06
2022-09-04T09:39:09.704Z,96831.22
2022-09-04T09:42:15.052Z,96827.38
2022-09-04T09:45:13.290Z,96824.75
2022-09-04T09:48:19.689Z,96830.66
2022-09-04T09:51:14.426Z,96827.13
2022-09-04T09:54:19.513Z,96819.34
2022-09-04T09:57:33.387Z,96821.25
2022-09-04T10:00:13.458Z,96821.59
2022-09-04T10:03:14.771Z,96816.13
2022-09-04T10:06:17.532Z,96809.78
2022-09-04T10:09:13.059Z,96808.31
2022-09-04T10:12:34.588Z,96822.25
2022-09-04T10:15:30.420Z,96812.94
2022-09-04T10:18:33.778Z,96805.66
2022-09-04T10:21:34.124Z,96809.41
2022-09-04T10:24:37.770Z,96803.13
2022-09-04T10:27:32.200Z,96803.41
2022-09-04T10:30:10.110Z,96805.25
2022-09-04T10:33:16.553Z,96801.09
2022-09-04T10:35:57.588Z,96797.69
2022-09-04T10:38:38.484Z,96809.41
2022-09-04T10:41:35.653Z,96805.97
2022-09-04T10:44:31.844Z,96809.31
2022-09-04T10:47:09.013Z,96807.41
2022-09-04T10:50:08.367Z,96802.97
2022-09-04T10:53:08.179Z,96799.50
2022-09-04T10:55:55.197Z,96796.53
2022-09-04T10:58:38.352Z,96798.03
2022-09-04T11:01:35.080Z,96798.22
2022-09-04T11:04:40.222Z,96788.44
2022-09-04T11:07:55.766Z,96793.72
2022-09-04T11:10:39.568Z,96787.63
2022-09-04T11:13:46.084Z,96782.47
2022-09-04T11:16:36.028Z,96782.00
2022-09-04T11:19:51.990Z,96784.88
2022-09-04T11:23:01.108Z,96778.03
2022-09-04T11:26:02.898Z,96775.63
2022-09-04T11:28:57.095Z,96775.63
2022-09-04T11:31:39.887Z,96768.03
2022-09-04T11:35:06.803Z,96765.13
2022-09-04T11:38:09.032Z,96770.03
2022-09-04T11:41:29.042Z,96766.44
2022-09-04T11:44:15.026Z,96772.03
2022-09-04T11:47:29.127Z,96760.22
2022-09-04T11:50:08.315Z,96767.38
2022-09-04T11:52:59.674Z,96763.91
2022-09-04T11:55:52.908Z,96763.66
2022-09-04T11:58:40.261Z,96760.91
2022-09-04T12:01:24.933Z,96763.63
2022-09-04T12:04:20.386Z,96761.22
2022-09-04T12:07:02.461Z,96764.50
2022-09-04T12:09:55.791Z,96768.72
2022-09-04T12:12:49.768Z,96761.59
2022-09-04T12:15:56.657Z,96771.50
2022-09-04T12:19:08.497Z,96766.00
2022-09-04T12:22:05.091Z,96766.19
2022-09-04T12:24:59.657Z,96766.66
2022-09-04T12:27:46.816Z,96758.34
2022-09-04T12:30:21.181Z,96760.09
2022-09-04T12:33:19.855Z,96754.63
2022-09-04T12:36:25.383Z,96749.28
2022-09-04T12:39:26.715Z,96751.78
2022-09-04T12:42:02.654Z,96754.97
2022-09-04T12:44:44.237Z,96753.03
2022-09-04T12:47:28.424Z,96759.78
2022-09-04T12:50:12.153Z,96760.69
2022-09-04T12:52:58.345Z,96752.50
2022-09-04T12:55:36.216Z,96747.81
2022-09-04T12:58:14.247Z,96754.78
2022-09-04T13:00:55.385Z,96745.19
2022-09-04T13:03:37.469Z,96751.59
2022-09-04T13:06:21.756Z,96750.56
2022-09-04T13:09:04.134Z,96746.25
2022-09-04T13:11:47.577Z,96750.09
2022-09-04T13:14:34.092Z,96746.31
2022-09-04T13:17:09.753Z,96750.09
2022-09-04T13:19:47.254Z,96747.13
2022-09-04T13:22:28.839Z,96752.47
2022-09-04T13:25:06.706Z,96750.66
2022-09-04T13:27:48.249Z,96751.91
2022-09-04T13:30:22.124Z,96743.88
2022-09-04T13:33:16.589Z,96744.19
2022-09-04T13:35:59.262Z,96740.72
2022-09-04T13:39:11.233Z,96738.63
2022-09-04T13:41:55.808Z,96739.25
2022-09-04T13:44:59.987Z,96749.28
2022-09-04T13:47:36.530Z,96747.66
2022-09-04T13:50:14.108Z,96742.81
2022-09-04T13:52:46.898Z,96738.94
2022-09-04T13:55:22.371Z,96744.03
2022-09-04T13:57:58.343Z,96736.09
2022-09-04T14:00:27.602Z,96738.47
2022-09-04T14:03:01.845Z,96735.13
2022-09-04T14:05:33.178Z,96735.63
2022-09-04T14:08:03.968Z,96743.88
2022-09-04T14:10:55.761Z,96737.63
2022-09-04T14:13:41.719Z,96733.47
2022-09-04T14:16:11.712Z,96733.28
2022-09-04T14:19:12.386Z,96743.41
2022-09-04T14:22:00.416Z,96737.47
2022-09-04T14:24:33.942Z,96737.81
2022-09-04T14:27:15.033Z,96730.00
2022-09-04T14:29:55.385Z,96741.31
2022-09-04T14:32:32.471Z,96745.75
2022-09-04T14:35:10.343Z,96742.06
2022-09-04T14:38:04.485Z,96733.09
2022-09-04T14:40:34.927Z,96743.25
2022-09-04T14:43:13.585Z,96747.91
2022-09-04T14:46:07.137Z,96742.22
2022-09-04T14:48:40.705Z,96739.28
2022-09-04T14:51:17.169Z,96737.94
2022-09-04T14:53:50.679Z,96726.81
2022-09-04T14:56:32.708Z,96725.97
2022-09-04T14:59:10.889Z,96725.91
2022-09-04T15:01:55.424Z,96726.78
2022-09-04T15:04:26.536Z,96741.56
2022-09-04T15:07:11.366Z,96733.97
2022-09-04T15:09:43.898Z,96738.25
2022-09-04T15:12:24.580Z,96721.59
2022-09-04T15:15:05.299Z,96731.25
2022-09-04T15:17:36.196Z,96725.13
2022-09-04T15:20:09.083Z,96730.91
2022-09-04T15:22:43.770Z,96734.13
2022-09-04T15:25:57.311Z,96729.47
2022-09-04T15:28:28.786Z,96729.59
2022-09-04T15:31:15.481Z,96728.06
2022-09-04T15:33:46.730Z,96724.13
2022-09-04T15:36:20.204Z,96721.50
2022-09-04T15:38:52.029Z,96716.63
2022-09-04T15:41:28.035Z,96722.47
2022-09-04T15:44:01.756Z,96719.41
2022-09-04T15:46:42.868Z,96724.59
2022-09-04T15:49:27.462Z,96720.91
2022-09-04T15:52:03.533Z,96716.09
2022-09-04T15:54:52.136Z,96725.91
2022-09-04T15:57:27.805Z,96719.38
2022-09-04T16:00:02.455Z,96720.31
2022-09-04T16:02:39.775Z,96724.19
2022-09-04T16:05:20.594Z,96712.78
2022-09-04T16:08:03.762Z,96725.03
2022-09-04T16:10:45.454Z,96720.50
2022-09-04T16:13:34.840Z,96717.56
2022-09-04T16:16:08.268Z,96714.63
2022-09-04T16:18:50.467Z,96712.06
2022-09-04T16:21:29.164Z,96716.97
2022-09-04T16:24:07.249Z,96714.63
2022-09-04T16:26:35.039Z,96717.28
2022-09-04T16:29:06.385Z,96712.03
2022-09-04T16:31:35.942Z,96718.00
2022-09-04T16:34:13.755Z,96712.09
2022-09-04T16:36:45.932Z,96716.47
2022-09-04T16:39:25.809Z,96714.25
2022-09-04T16:41:59.638Z,96712.03
2022-09-04T16:44:31.926Z,96717.47
2022-09-04T16:47:07.875Z,96716.00
2022-09-04T16:49:47.064Z,96712.56
2022-09-04T16:52:31.959Z,96708.34
2022-09-04T16:55:10.006Z,96720.69
2022-09-04T16:57:44.170Z,96713.06
2022-09-04T17:00:14.643Z,96712.59
2022-09-04T17:02:49.185Z,96710.63
2022-09-04T17:05:28.490Z,96708.22
2022-09-04T17:08:02.924Z,96711.28
2022-09-04T17:10:41.420Z,96715.91
2022-09-04T17:13:17.747Z,96716.69
2022-09-04T17:15:54.831Z,96721.78
2022-09-04T17:18:25.497Z,96729.47
2022-09-04T17:26:39.798Z,96733.28
2022-09-04T17:28:58.183Z,96725.88
2022-09-04T17:29:07.927Z,96732.72
2022-09-04T17:29:48.070Z,96727.41
2022-09-04T17:34:14.653Z,96729.09
2022-09-04T17:40:39.131Z,96734.13
2022-09-04T17:40:40.957Z,96728.97
2022-09-04T17:41:40.285Z,96726.97
2022-09-04T17:44:29.256Z,96726.06
2022-09-04T17:47:12.464Z,96727.31
2022-09-04T17:49:45.976Z,96731.75
2022-09-04T17:52:23.550Z,96731.38
2022-09-04T17:54:52.984Z,96723.16
2022-09-04T17:57:26.353Z,96734.53
2022-09-04T18:00:01.142Z,96728.47
2022-09-04T18:02:35.708Z,96738.66
2022-09-04T18:05:15.840Z,96739.50
2022-09-04T18:08:07.956Z,96739.31
2022-09-04T18:10:51.874Z,96753.53
2022-09-04T18:13:37.499Z,96738.84
2022-09-04T18:16:50.378Z,96750.75
2022-09-04T18:19:38.356Z,96755.13
2022-09-04T18:22:26.541Z,96755.69
2022-09-04T18:25:16.260Z,96757.38
2022-09-04T18:28:11.452Z,96767.19
2022-09-04T18:37:07.100Z,96773.19
2022-09-04T18:37:07.402Z,96761.75
2022-09-04T18:37:25.133Z,96771.88
2022-09-04T18:39:50.281Z,96769.56
2022-09-04T18:50:20.644Z,96774.97
2022-09-04T18:50:32.524Z,96777.25
2022-09-04T18:50:36.798Z,96785.97
2022-09-04T18:53:54.119Z,96782.22
2022-09-04T18:56:27.653Z,96792.53
2022-09-04T18:59:03.151Z,96787.09
2022-09-04T19:01:41.994Z,96787.34
2022-09-04T19:04:38.769Z,96785.22
2022-09-04T19:07:10.848Z,96787.63
2022-09-04T19:09:56.583Z,96788.53
2022-09-04T19:12:35.699Z,96789.34
2022-09-04T19:15:36.738Z,96792.03
2022-09-04T19:18:17.391Z,96792.06
2022-09-04T19:20:49.132Z,96788.56
2022-09-04T19:23:29.111Z,96782.38
2022-09-04T19:26:03.052Z,96787.78
2022-09-04T19:28:53.021Z,96782.13
2022-09-04T19:31:31.039Z,96779.19
2022-09-04T19:34:09.653Z,96776.16
2022-09-04T19:36:43.826Z,96775.38
2022-09-04T19:45:55.003Z,96782.69
2022-09-04T19:46:00.253Z,96780.03
2022-09-04T19:46:18.034Z,96775.88
2022-09-04T19:48:20.678Z,96778.63
2022-09-04T19:53:23.099Z,96782.41
2022-09-04T19:53:57.470Z,96781.88
2022-09-04T19:56:31.496Z,96782.69
2022-09-04T19:59:06.375Z,96775.66
2022-09-04T20:01:47.204Z,96783.78
2022-09-04T20:04:25.495Z,96784.06
2022-09-04T20:06:59.453Z,96784.66
2022-09-04T20:09:33.969Z,96772.75
2022-09-04T20:12:11.680Z,96787.91
2022-09-04T20:14:46.537Z,96786.31
2022-09-04T20:17:35.774Z,96782.50
2022-09-04T20:20:13.815Z,96779.59
2022-09-04T20:22:49.454Z,96790.75
2022-09-04T20:25:32.229Z,96791.28
2022-09-04T20:28:15.232Z,96790.78
2022-09-04T20:30:49.453Z,96796.75
2022-09-04T20:33:22.549Z,96794.03
2022-09-04T20:35:59.662Z,96789.69
2022-09-04T20:38:37.546Z,96795.66
2022-09-04T20:41:13.651Z,96798.34
2022-09-04T20:43:56.104Z,96788.06
2022-09-04T20:52:43.353Z,96799.44
2022-09-04T20:52:43.579Z,96798.91
2022-09-04T20:52:56.060Z,96782.66
2022-09-04T20:55:26.468Z,96793.75
2022-09-04T21:03:12.254Z,96787.53
2022-09-04T21:03:21.099Z,96784.28
2022-09-04T21:04:34.891Z,96788.06
2022-09-04T21:07:22.430Z,96785.91
2022-09-04T21:09:59.658Z,96790.81
2022-09-04T21:12:36.116Z,96789.16
2022-09-04T21:15:11.605Z,96796.47
2022-09-04T21:17:55.886Z,96801.34
2022-09-04T21:21:00.048Z,96798.06
2022-09-04T21:24:03.404Z,96809.72
2022-09-04T21:26:50.861Z,96815.13
2022-09-04T21:29:33.460Z,96817.00
2022-09-04T21:32:36.135Z,96823.25
2022-09-04T21:35:08.282Z,96824.06
2022-09-04T21:37:46.841Z,96833.81
2022-09-04T21:40:52.760Z,96835.16
2022-09-04T21:43:48.338Z,96835.94
2022-09-04T21:46:32.850Z,96837.03
2022-09-04T21:49:24.373Z,96832.47
2022-09-04T21:52:18.259Z,96837.03
2022-09-04T21:58:10.085Z,96848.69
2022-09-04T22:02:26.361Z,96846.78
2022-09-04T22:02:42.619Z,96844.91
2022-09-04T22:04:26.441Z,96855.16
2022-09-04T22:08:34.600Z,96840.03
2022-09-04T22:13:32.891Z,96849.22
2022-09-04T22:13:37.502Z,96857.34
2022-09-04T22:16:17.238Z,96857.84
2022-09-04T22:19:16.327Z,96861.88
2022-09-04T22:22:03.715Z,96858.94
2022-09-04T22:24:53.059Z,96858.38
2022-09-04T22:28:08.522Z,96851.09
2022-09-04T22:30:43.237Z,96852.72
2022-09-04T22:33:29.383Z,96858.94
2022-09-04T22:37:00.440Z,96855.97
2022-09-04T22:40:05.197Z,96857.84
2022-09-04T22:42:42.828Z,96859.72
2022-09-04T22:45:39.909Z,96856.47
2022-09-04T22:48:40.917Z,96858.66
2022-09-04T22:51:30.527Z,96870.53
2022-09-04T22:54:17.151Z,96881.06
2022-09-04T22:56:54.299Z,96881.91
2022-09-04T22:59:54.590Z,96884.31
2022-09-04T23:03:09.860Z,96888.66
2022-09-04T23:06:24.862Z,96884.31
2022-09-04T23:13:52.402Z,96872.44
2022-09-04T23:13:56.901Z,96881.06
2022-09-04T23:15:30.329Z,96886.44
2022-09-04T23:20:23.793Z,96889.69
2022-09-04T23:26:50.538Z,96885.50
2022-09-04T23:26:53.813Z,96885.75
2022-09-04T23:27:50.374Z,96891.75
2022-09-04T23:30:25.670Z,96884.38
2022-09-04T23:33:33.656Z,96894.63
2022-09-04T23:36:29.682Z,96895.69
2022-09-04T23:39:36.356Z,96892.78
2022-09-04T23:42:25.605Z,96894.72
2022-09-04T23:45:14.501Z,96901.47
2022-09-04T23:48:19.129Z,96903.38
2022-09-04T23:50:55.443Z,96900.66
2022-09-04T23:53:32.493Z,96900.41
2022-09-04T23:56:17.238Z,96895.25
2022-09-04T23:59:31.888Z,96898.66
